CYBB/YBB METAR and TAF weather

Enter ICAO airport designator
Station Type Date Time Source
CYBB METAR 2021/09/25 03:00 UTC NOAA

CYBB 250300Z 11012G17KT 15SM FEW010 BKN130 M00/M01 A3017 RMK SC1AC5 SC TR LAST STFD OBS/NXT 251500Z SLP219


Station Type Date Time Source
CYBB Decoded METAR 2021/09/25 03:00 UTC NOAA

Pelly Bay Airport, Canada (CYBB) 68-32N 089-49W
Sep 24, 2021 - 11:00 PM EDT / 2021.09.25 0300 UTC
Wind: from the ESE (110 degrees) at 14 MPH (12 KT) gusting to 20 MPH (17 KT):0
Visibility: 15 mile(s):0
Sky conditions: mostly cloudy
Temperature: 32 F (0 C)
Windchill: 21 F (-6 C):1
Dew Point: 30 F (-1 C)
Relative Humidity: 92%
Pressure (altimeter): 30.17 in. Hg (1021 hPa)
ob: CYBB 250300Z 11012G17KT 15SM FEW010 BKN130 M00/M01 A3017 RMK SC1AC5 SC TR LAST STFD OBS/NXT 251500Z SLP219
cycle: 3

Station Type Date Time Source
CYBB TAF 2021/09/24 21:27 UTC NOAA

TAF
AMD TAF
AMD CYBB 242126Z 2421/2423 14010KT P6SM SCT020
TEMPO 2421/2423 BKN020
BECMG 2421/2423 12012KT
RMK NXT FCST WILL BE ISSUED AT 251545Z

Example: see airport list